Time;durP1;ratioP1;P1;durP2;ratioP2;P2;SDS_P1;SDS_P2;PMS_P1;PMS_P2;Temp;Humidity;BMP_temperature;BMP_pressure;BME280_temperature;BME280_humidity;BME280_pressure;Samples;Min_cycle;Max_cycle;Signal;HPM_P1;HPM_P2
2021/11/06 00:00:54;;;;;;;7.00;1.10;;;8.00;99.90;;;;;;5012284;28;20351;-90
2021/11/06 00:03:20;;;;;;;62.03;4.78;;;7.90;99.90;;;;;;5011745;28;20038;-88
2021/11/06 00:05:46;;;;;;;7.80;1.67;;;8.00;99.90;;;;;;5012099;28;20132;-89
2021/11/06 00:08:12;;;;;;;9.52;1.50;;;8.00;99.90;;;;;;4995857;28;20104;-89
2021/11/06 00:10:38;;;;;;;7.00;1.38;;;8.00;99.90;;;;;;5011725;28;20121;-89
2021/11/06 00:13:04;;;;;;;9.18;1.10;;;7.90;99.90;;;;;;5011680;28;20124;-87
2021/11/06 00:15:30;;;;;;;5.72;1.40;;;7.90;99.90;;;;;;5011598;28;20046;-90
2021/11/06 00:17:56;;;;;;;12.52;1.20;;;7.90;99.90;;;;;;4995856;28;20116;-89
2021/11/06 00:20:21;;;;;;;9.90;1.40;;;7.90;99.90;;;;;;5011366;28;20466;-90
2021/11/06 00:22:47;;;;;;;11.00;1.42;;;7.90;99.90;;;;;;5012034;28;20128;-88
2021/11/06 00:25:14;;;;;;;9.60;3.17;;;7.90;99.90;;;;;;5012378;28;20042;-89
2021/11/06 00:27:41;;;;;;;10.00;1.30;;;8.00;99.90;;;;;;5014934;28;20462;-89
2021/11/06 00:30:09;;;;;;;5.80;1.67;;;8.10;99.90;;;;;;5014942;28;20045;-88
2021/11/06 00:32:36;;;;;;;5.72;1.08;;;8.10;99.90;;;;;;4997948;28;20033;-88
2021/11/06 00:35:03;;;;;;;8.57;1.58;;;8.10;99.90;;;;;;4998654;28;20053;-89
2021/11/06 00:37:29;;;;;;;18.58;1.83;;;8.10;99.90;;;;;;5014434;28;20053;-88
2021/11/06 00:39:54;;;;;;;9.27;2.38;;;8.20;99.90;;;;;;5014727;28;20045;-91
2021/11/06 00:42:20;;;;;;;17.38;2.60;;;8.20;99.90;;;;;;5014622;28;20087;-89
2021/11/06 00:44:46;;;;;;;9.75;1.63;;;8.20;99.90;;;;;;5014342;28;20474;-90
2021/11/06 00:47:12;;;;;;;10.77;1.63;;;8.30;99.90;;;;;;4998108;28;20057;-91
2021/11/06 00:49:38;;;;;;;8.48;1.17;;;8.30;99.90;;;;;;5014027;28;20052;-89
2021/11/06 00:52:05;;;;;;;12.35;1.77;;;8.30;99.90;;;;;;5014417;28;20041;-88
2021/11/06 00:54:31;;;;;;;9.82;1.35;;;8.30;99.90;;;;;;5014087;28;20437;-89
2021/11/06 00:56:57;;;;;;;6.80;1.30;;;8.30;99.90;;;;;;5014462;28;20073;-90
2021/11/06 00:59:23;;;;;;;11.88;1.40;;;8.30;99.90;;;;;;4997777;28;20544;-88
2021/11/06 01:01:51;;;;;;;12.70;1.45;;;8.40;99.90;;;;;;5013944;28;20056;-90
2021/11/06 01:04:17;;;;;;;12.15;1.50;;;8.40;99.90;;;;;;5014457;28;20046;-89
2021/11/06 01:06:43;;;;;;;6.18;1.38;;;8.40;99.90;;;;;;5013532;28;20603;-90
2021/11/06 01:09:09;;;;;;;6.78;1.42;;;8.50;99.90;;;;;;5031769;28;20230;-89
2021/11/06 01:11:35;;;;;;;8.07;1.25;;;8.50;99.90;;;;;;4981286;28;20044;-90
2021/11/06 01:14:01;;;;;;;5.22;1.30;;;8.50;99.90;;;;;;5013996;28;20041;-91
2021/11/06 01:16:27;;;;;;;9.80;1.25;;;8.50;99.90;;;;;;5013871;28;20041;-89
2021/11/06 01:18:53;;;;;;;10.13;1.23;;;8.50;99.90;;;;;;5014178;28;20041;-88
2021/11/06 01:21:19;;;;;;;17.20;1.52;;;8.60;99.90;;;;;;4981566;28;20049;-88
2021/11/06 01:23:45;;;;;;;10.05;1.40;;;8.60;99.90;;;;;;5013786;28;20358;-89
2021/11/06 01:26:11;;;;;;;10.93;1.67;;;8.60;99.90;;;;;;5013735;28;20088;-88
2021/11/06 01:28:36;;;;;;;13.88;1.52;;;8.60;99.90;;;;;;5013766;28;20131;-89
2021/11/06 01:31:02;;;;;;;7.03;1.77;;;8.70;99.90;;;;;;4997400;28;20076;-90
2021/11/06 01:33:28;;;;;;;8.45;1.63;;;8.70;99.90;;;;;;4996874;28;20077;-88
2021/11/06 01:35:54;;;;;;;8.02;1.85;;;8.70;99.90;;;;;;5013713;28;20053;-88
2021/11/06 01:38:20;;;;;;;16.17;2.20;;;8.70;99.90;;;;;;4997665;28;20059;-89
2021/11/06 01:40:46;;;;;;;8.10;1.50;;;8.70;99.90;;;;;;5013625;28;20033;-89
2021/11/06 01:43:13;;;;;;;17.77;2.17;;;8.70;99.90;;;;;;4997210;28;20033;-89
2021/11/06 01:45:38;;;;;;;3.28;1.15;;;8.70;99.90;;;;;;5013228;28;20046;-90
2021/11/06 01:48:05;;;;;;;9.90;1.60;;;8.80;99.90;;;;;;5013790;28;20053;-89
2021/11/06 01:50:30;;;;;;;10.80;1.90;;;8.80;99.90;;;;;;5013447;28;20068;-89
2021/11/06 01:52:56;;;;;;;11.32;1.40;;;8.80;99.90;;;;;;5013556;28;20470;-88
2021/11/06 01:55:23;;;;;;;7.95;1.77;;;8.80;99.90;;;;;;4997443;28;20045;-88
2021/11/06 01:57:50;;;;;;;11.82;1.52;;;8.80;99.90;;;;;;5013943;28;20102;-87
2021/11/06 02:00:24;;;;;;;5.60;2.25;;;8.80;99.90;;;;;;5017427;28;20042;-88
2021/11/06 02:02:51;;;;;;;6.18;1.73;;;8.80;99.90;;;;;;5017021;28;20116;-88
2021/11/06 02:05:17;;;;;;;14.85;2.60;;;8.80;99.90;;;;;;5017443;28;20042;-89
2021/11/06 02:07:44;;;;;;;9.43;2.40;;;8.80;99.90;;;;;;5017512;28;20175;-88
2021/11/06 02:10:10;;;;;;;5.53;2.03;;;8.80;99.90;;;;;;5001196;28;20542;-88
2021/11/06 02:12:38;;;;;;;12.75;2.53;;;8.80;99.90;;;;;;5000599;28;20051;-87
2021/11/06 02:15:06;;;;;;;7.43;2.13;;;8.80;99.90;;;;;;5001229;28;20092;-88
2021/11/06 02:17:32;;;;;;;11.95;2.20;;;8.80;99.90;;;;;;5017008;28;20049;-88
2021/11/06 02:19:58;;;;;;;9.77;2.13;;;8.80;99.90;;;;;;5001149;28;20044;-90
2021/11/06 02:22:24;;;;;;;9.75;2.10;;;8.90;99.90;;;;;;5017250;28;20382;-89
2021/11/06 02:24:50;;;;;;;12.50;3.83;;;8.90;99.90;;;;;;4984439;28;20041;-88
2021/11/06 02:27:20;;;;;;;7.95;2.55;;;8.90;99.90;;;;;;5016901;28;20504;-89
2021/11/06 02:29:46;;;;;;;12.85;2.90;;;8.90;99.90;;;;;;5016899;28;20049;-88
2021/11/06 02:32:11;;;;;;;14.38;2.97;;;8.90;99.90;;;;;;5016713;28;20121;-87
2021/11/06 02:34:37;;;;;;;14.25;3.08;;;8.80;99.90;;;;;;5016612;28;20041;-88
2021/11/06 02:37:03;;;;;;;17.95;3.50;;;8.80;99.90;;;;;;5016999;28;20053;-87
2021/11/06 02:39:29;;;;;;;11.75;3.03;;;8.80;99.90;;;;;;5000653;28;20176;-87
2021/11/06 02:42:00;;;;;;;6.63;3.08;;;8.80;99.90;;;;;;5000409;28;20132;-88
2021/11/06 02:44:26;;;;;;;12.70;4.20;;;8.80;99.90;;;;;;5016930;28;20541;-89
2021/11/06 02:46:52;;;;;;;6.68;3.03;;;8.80;99.90;;;;;;4999791;28;20129;-89
2021/11/06 02:49:18;;;;;;;22.77;4.28;;;8.80;99.90;;;;;;5016671;28;20129;-87
2021/11/06 02:51:44;;;;;;;8.90;3.90;;;8.80;99.90;;;;;;4999655;28;20049;-88
2021/11/06 02:54:10;;;;;;;11.75;3.90;;;8.80;99.90;;;;;;5016544;28;20049;-89
2021/11/06 02:56:36;;;;;;;13.18;4.47;;;8.80;99.90;;;;;;5015801;28;20492;-87
2021/11/06 02:59:01;;;;;;;15.10;4.57;;;8.80;99.90;;;;;;5000272;28;20049;-88
2021/11/06 03:01:27;;;;;;;15.98;3.97;;;8.80;99.90;;;;;;5016601;28;20040;-88
2021/11/06 03:03:53;;;;;;;9.48;4.05;;;8.80;99.90;;;;;;5000027;28;20205;-88
2021/11/06 03:06:19;;;;;;;13.88;3.88;;;8.90;99.90;;;;;;4999896;28;20041;-88
2021/11/06 03:08:45;;;;;;;15.02;3.97;;;8.90;99.90;;;;;;4999404;28;20099;-89
2021/11/06 03:11:10;;;;;;;13.88;3.92;;;8.90;99.90;;;;;;5000118;28;20381;-89
2021/11/06 03:13:36;;;;;;;7.03;3.72;;;8.90;99.90;;;;;;5015680;28;20051;-89
2021/11/06 03:16:03;;;;;;;18.80;4.40;;;8.90;99.90;;;;;;5016408;28;20469;-88
2021/11/06 03:18:28;;;;;;;12.77;4.10;;;8.90;99.90;;;;;;5016279;28;20385;-89
2021/11/06 03:20:54;;;;;;;10.90;3.97;;;8.80;99.90;;;;;;4999379;28;20044;-90
2021/11/06 03:23:20;;;;;;;13.88;3.97;;;8.80;99.90;;;;;;5016163;28;20103;-90
2021/11/06 03:25:45;;;;;;;10.48;4.10;;;8.80;99.90;;;;;;4999330;28;20053;-90
2021/11/06 03:28:11;;;;;;;14.95;3.97;;;8.80;99.90;;;;;;5016050;28;20095;-89
2021/11/06 03:30:37;;;;;;;13.43;4.32;;;8.80;99.90;;;;;;5015725;28;20071;-90
2021/11/06 03:33:03;;;;;;;11.40;3.65;;;8.80;99.90;;;;;;5015642;28;20588;-91
2021/11/06 03:35:29;;;;;;;13.90;4.15;;;8.80;99.90;;;;;;4999797;28;20087;-91
2021/11/06 03:37:55;;;;;;;13.15;4.25;;;8.80;99.90;;;;;;5015498;28;20069;-90
2021/11/06 03:40:21;;;;;;;10.75;3.45;;;8.80;99.90;;;;;;4999566;28;20135;-88
2021/11/06 03:42:47;;;;;;;12.18;4.25;;;8.70;99.90;;;;;;5015404;28;20041;-87
2021/11/06 03:45:14;;;;;;;10.70;4.18;;;8.70;99.90;;;;;;5016005;28;20079;-88
2021/11/06 03:47:40;;;;;;;15.75;4.63;;;8.80;99.90;;;;;;5015374;28;20049;-88
2021/11/06 03:50:09;;;;;;;8.30;4.45;;;8.80;99.90;;;;;;5015960;28;20465;-88
2021/11/06 03:52:35;;;;;;;14.27;4.78;;;8.80;99.90;;;;;;5015582;28;20041;-89
2021/11/06 03:55:02;;;;;;;10.70;4.38;;;8.70;99.90;;;;;;5016152;28;20049;-88
2021/11/06 03:57:28;;;;;;;12.30;4.50;;;8.80;99.90;;;;;;5016122;28;20436;-89
2021/11/06 03:59:53;;;;;;;16.73;5.22;;;8.80;99.90;;;;;;4998812;28;20033;-89
2021/11/06 04:02:19;;;;;;;10.15;4.93;;;8.80;99.90;;;;;;5015566;28;20048;-88
2021/11/06 04:04:45;;;;;;;11.68;5.13;;;8.80;99.90;;;;;;5015282;28;20041;-89
2021/11/06 04:07:10;;;;;;;11.73;4.75;;;8.80;99.90;;;;;;5015766;28;20073;-89
2021/11/06 04:09:36;;;;;;;14.02;5.28;;;8.80;99.90;;;;;;5015402;28;20060;-88
2021/11/06 04:12:02;;;;;;;14.45;5.40;;;8.80;99.90;;;;;;4998500;28;20674;-90
2021/11/06 04:14:28;;;;;;;18.83;6.43;;;8.80;99.90;;;;;;5015304;28;20037;-90
2021/11/06 04:16:54;;;;;;;16.75;6.00;;;8.80;99.90;;;;;;5014919;28;20524;-88
2021/11/06 04:19:20;;;;;;;22.67;6.22;;;8.80;99.90;;;;;;4998840;28;20053;-87
2021/11/06 04:21:46;;;;;;;15.10;6.60;;;8.80;99.90;;;;;;5014282;28;20091;-88
2021/11/06 04:24:12;;;;;;;15.60;5.32;;;8.80;99.90;;;;;;5014798;28;20045;-89
2021/11/06 04:26:38;;;;;;;18.60;6.03;;;8.90;99.90;;;;;;5014714;28;20106;-87
2021/11/06 04:29:04;;;;;;;25.83;6.45;;;8.80;99.90;;;;;;4998287;28;20377;-87
2021/11/06 04:31:29;;;;;;;20.67;6.32;;;8.90;99.90;;;;;;5014833;28;20044;-89
2021/11/06 04:33:55;;;;;;;19.25;6.10;;;8.90;99.90;;;;;;5014501;28;20049;-88
2021/11/06 04:36:21;;;;;;;16.08;7.45;;;8.90;99.90;;;;;;5014972;28;20119;-89
2021/11/06 04:38:47;;;;;;;15.07;6.18;;;8.90;99.90;;;;;;4998207;28;20381;-89
2021/11/06 04:41:12;;;;;;;23.67;6.30;;;8.90;99.90;;;;;;5014421;28;20041;-88
2021/11/06 04:43:38;;;;;;;17.60;7.38;;;8.90;99.90;;;;;;5014403;28;20041;-89
2021/11/06 04:46:05;;;;;;;22.33;7.30;;;8.90;99.90;;;;;;4981925;28;20112;-89
2021/11/06 04:48:32;;;;;;;18.50;6.43;;;8.90;99.90;;;;;;5014476;28;20045;-89
2021/11/06 04:50:57;;;;;;;22.08;7.05;;;8.90;99.90;;;;;;5014246;28;20045;-89
2021/11/06 04:53:23;;;;;;;19.23;6.47;;;8.80;99.90;;;;;;5014164;28;20048;-89
2021/11/06 04:55:49;;;;;;;16.98;6.40;;;8.80;99.90;;;;;;4997893;28;20049;-89
2021/11/06 04:58:15;;;;;;;19.15;6.95;;;8.80;99.90;;;;;;5031967;28;20071;-89
2021/11/06 05:00:41;;;;;;;13.80;6.30;;;8.80;99.90;;;;;;5014189;28;20076;-87
2021/11/06 05:03:07;;;;;;;20.27;7.28;;;8.80;99.90;;;;;;4997987;28;20080;-87
2021/11/06 05:05:32;;;;;;;19.13;6.68;;;8.80;99.90;;;;;;5014411;28;20084;-88
2021/11/06 05:07:58;;;;;;;17.15;6.32;;;8.80;99.90;;;;;;4981509;28;20151;-88
2021/11/06 05:10:24;;;;;;;15.80;6.40;;;8.80;99.90;;;;;;4998143;28;20041;-89
2021/11/06 05:12:50;;;;;;;16.05;7.05;;;8.70;99.90;;;;;;4997336;28;20084;-89
2021/11/06 05:15:16;;;;;;;15.27;6.78;;;8.70;99.90;;;;;;5014700;28;20045;-87
2021/11/06 05:17:42;;;;;;;15.90;6.85;;;8.70;99.90;;;;;;5014076;28;20124;-87
2021/11/06 05:20:08;;;;;;;20.55;7.72;;;8.70;99.90;;;;;;4997710;28;20733;-89
2021/11/06 05:22:34;;;;;;;22.00;8.07;;;8.70;99.90;;;;;;5013740;28;20048;-88
2021/11/06 05:25:02;;;;;;;17.77;7.35;;;8.70;99.90;;;;;;5013783;28;20053;-88
2021/11/06 05:27:28;;;;;;;16.70;7.80;;;8.70;99.90;;;;;;5013543;28;20049;-90
2021/11/06 05:29:54;;;;;;;17.88;7.55;;;8.70;99.90;;;;;;5031118;28;20041;-88
2021/11/06 05:32:20;;;;;;;15.77;7.78;;;8.70;99.90;;;;;;5013107;28;20048;-89
2021/11/06 05:34:46;;;;;;;19.10;9.45;;;8.80;99.90;;;;;;5013239;28;20359;-88
2021/11/06 05:37:12;;;;;;;21.23;8.70;;;8.80;99.90;;;;;;5013979;28;20052;-88
2021/11/06 05:39:37;;;;;;;24.80;8.65;;;8.70;99.90;;;;;;5013844;28;20347;-88
2021/11/06 05:42:03;;;;;;;24.42;9.10;;;8.70;99.90;;;;;;5013550;28;20037;-87
2021/11/06 05:44:29;;;;;;;22.17;8.95;;;8.80;99.90;;;;;;5014019;28;20124;-88
2021/11/06 05:46:55;;;;;;;20.20;9.68;;;8.80;99.90;;;;;;5013420;28;20045;-89
2021/11/06 05:49:20;;;;;;;23.50;9.80;;;8.80;99.90;;;;;;5013790;28;20041;-88
2021/11/06 05:51:46;;;;;;;27.20;10.50;;;8.80;99.90;;;;;;5013309;28;20095;-88
2021/11/06 05:54:14;;;;;;;21.17;9.77;;;8.80;99.90;;;;;;4997567;28;20124;-90
2021/11/06 05:56:40;;;;;;;29.13;10.57;;;8.80;99.90;;;;;;5013877;28;20057;-88
2021/11/06 05:59:07;;;;;;;21.15;11.88;;;8.80;99.90;;;;;;5013076;28;20037;-90
2021/11/06 06:01:33;;;;;;;33.42;11.02;;;8.80;99.90;;;;;;4997340;28;20045;-89
2021/11/06 06:03:58;;;;;;;26.30;10.98;;;8.80;99.90;;;;;;5013199;28;20484;-89
2021/11/06 06:06:24;;;;;;;26.58;11.68;;;8.90;99.90;;;;;;4981372;28;20042;-88
2021/11/06 06:08:50;;;;;;;23.52;11.55;;;8.90;99.90;;;;;;5013068;28;20095;-89
2021/11/06 06:11:15;;;;;;;22.20;11.93;;;8.90;99.90;;;;;;4997231;28;20072;-88
2021/11/06 06:13:41;;;;;;;24.67;11.98;;;8.90;99.90;;;;;;5013225;28;20037;-89
2021/11/06 06:16:07;;;;;;;32.67;13.27;;;8.90;99.90;;;;;;4996901;28;20045;-90
2021/11/06 06:18:32;;;;;;;28.02;13.75;;;8.90;99.90;;;;;;5013660;28;20052;-90
2021/11/06 06:20:58;;;;;;;33.28;13.68;;;8.90;99.90;;;;;;5012616;28;20073;-89
2021/11/06 06:23:24;;;;;;;28.25;14.18;;;8.90;99.90;;;;;;4997039;28;20079;-92
2021/11/06 06:25:50;;;;;;;33.50;13.63;;;8.90;99.90;;;;;;5012900;28;20056;-90
2021/11/06 06:28:16;;;;;;;29.45;13.25;;;8.90;99.90;;;;;;5013647;28;20049;-90
2021/11/06 06:30:41;;;;;;;25.88;12.63;;;8.90;99.90;;;;;;4997094;28;20037;-89
2021/11/06 06:33:07;;;;;;;34.08;13.63;;;8.90;99.90;;;;;;5012728;28;20038;-90
2021/11/06 06:35:33;;;;;;;29.67;14.07;;;8.90;99.90;;;;;;5013483;28;20181;-89
2021/11/06 06:38:00;;;;;;;26.63;14.45;;;8.90;99.90;;;;;;5012904;28;20100;-90
2021/11/06 06:40:27;;;;;;;34.65;14.55;;;8.90;99.90;;;;;;5013161;28;20062;-89
2021/11/06 06:42:53;;;;;;;30.33;14.65;;;8.80;99.90;;;;;;5012858;28;20492;-89
2021/11/06 06:45:19;;;;;;;31.85;16.88;;;8.90;99.90;;;;;;5016103;28;20125;-89
2021/11/06 06:47:45;;;;;;;28.17;14.23;;;8.80;99.90;;;;;;5016937;28;20056;-89
2021/11/06 06:50:11;;;;;;;29.67;14.82;;;8.80;99.90;;;;;;4999921;28;20630;-90
2021/11/06 06:52:37;;;;;;;29.88;14.15;;;8.80;99.90;;;;;;5016763;28;20041;-90
2021/11/06 06:55:04;;;;;;;33.60;14.80;;;8.80;99.90;;;;;;5000104;28;20128;-89
2021/11/06 06:57:30;;;;;;;36.95;16.60;;;8.80;99.90;;;;;;5016777;28;20677;-89
2021/11/06 06:59:56;;;;;;;30.33;15.85;;;8.80;99.90;;;;;;4999965;28;20045;-89
2021/11/06 07:02:22;;;;;;;26.10;15.60;;;8.80;99.90;;;;;;5000367;28;20045;-90
2021/11/06 07:04:47;;;;;;;34.00;17.67;;;8.80;99.90;;;;;;5016513;28;20596;-89
2021/11/06 07:07:13;;;;;;;31.77;16.13;;;8.80;99.90;;;;;;4999841;28;20048;-89
2021/11/06 07:09:39;;;;;;;25.75;15.27;;;8.90;99.90;;;;;;5016496;28;20188;-89
2021/11/06 07:12:07;;;;;;;34.38;16.35;;;8.90;99.90;;;;;;4999408;28;20386;-88
2021/11/06 07:14:33;;;;;;;37.85;16.23;;;8.90;99.90;;;;;;5000303;28;20048;-89
2021/11/06 07:16:59;;;;;;;31.55;15.63;;;8.90;99.90;;;;;;5016035;28;20037;-89
2021/11/06 07:19:25;;;;;;;29.70;14.82;;;8.90;99.90;;;;;;4999689;28;20045;-89
2021/11/06 07:21:51;;;;;;;30.52;16.15;;;9.00;99.90;;;;;;5016139;28;20045;-89
2021/11/06 07:24:17;;;;;;;25.40;15.50;;;9.00;99.90;;;;;;5016019;28;20059;-89
2021/11/06 07:26:43;;;;;;;30.67;15.50;;;9.00;99.90;;;;;;5015805;28;20047;-89
2021/11/06 07:29:09;;;;;;;31.88;16.52;;;9.00;99.90;;;;;;4999050;28;20045;-88
2021/11/06 07:31:34;;;;;;;31.95;15.68;;;9.00;99.90;;;;;;5015679;28;20461;-90
2021/11/06 07:34:00;;;;;;;23.58;14.75;;;9.10;99.90;;;;;;5015385;28;20523;-90
2021/11/06 07:36:26;;;;;;;34.63;15.10;;;9.10;99.90;;;;;;5015763;28;20124;-91
2021/11/06 07:38:53;;;;;;;28.80;15.38;;;9.10;99.90;;;;;;4999697;28;20043;-90
2021/11/06 07:41:20;;;;;;;35.88;16.55;;;9.20;99.90;;;;;;4998960;28;20483;-90
2021/11/06 07:43:46;;;;;;;29.33;16.05;;;9.10;99.90;;;;;;5015884;28;20037;-90
2021/11/06 07:46:11;;;;;;;28.52;16.15;;;9.20;99.90;;;;;;5015333;28;20098;-89
2021/11/06 07:48:37;;;;;;;30.45;15.85;;;9.20;99.90;;;;;;5015526;28;20060;-89
2021/11/06 07:51:03;;;;;;;34.67;15.55;;;9.20;99.90;;;;;;4998886;28;20048;-90
2021/11/06 07:53:29;;;;;;;36.95;16.02;;;9.30;99.90;;;;;;4999277;28;20034;-88
2021/11/06 07:55:55;;;;;;;31.13;16.77;;;9.30;99.90;;;;;;5014545;28;20045;-88
2021/11/06 07:58:21;;;;;;;27.85;15.35;;;9.30;99.90;;;;;;5015743;28;20086;-92
2021/11/06 08:00:47;;;;;;;26.70;15.52;;;9.30;99.90;;;;;;4999285;28;20586;-89
2021/11/06 08:03:13;;;;;;;28.17;15.40;;;9.30;99.90;;;;;;4982395;28;20076;-90
2021/11/06 08:05:39;;;;;;;33.83;15.52;;;9.30;99.90;;;;;;4998821;28;20045;-89
2021/11/06 08:08:05;;;;;;;34.70;15.23;;;9.30;99.90;;;;;;5014875;28;20106;-89
2021/11/06 08:10:31;;;;;;;28.13;15.45;;;9.30;99.90;;;;;;5015375;28;20452;-89
2021/11/06 08:13:02;;;;;;;27.63;14.90;;;9.40;99.90;;;;;;5014862;28;20073;-89
2021/11/06 08:15:28;;;;;;;26.35;15.20;;;9.40;99.90;;;;;;5015315;28;20045;-89
2021/11/06 08:17:54;;;;;;;25.27;15.15;;;9.40;99.90;;;;;;4998871;28;20484;-90
2021/11/06 08:20:22;;;;;;;29.20;14.93;;;9.40;99.90;;;;;;5014939;28;20037;-89
2021/11/06 08:22:49;;;;;;;26.45;15.45;;;9.40;99.90;;;;;;5014995;28;20057;-89
2021/11/06 08:25:16;;;;;;;30.08;15.35;;;9.50;99.90;;;;;;4997943;28;20037;-89
2021/11/06 08:27:48;;;;;;;29.92;15.27;;;9.50;99.90;;;;;;5014966;28;20056;-90
2021/11/06 08:30:15;;;;;;;31.33;15.63;;;9.50;99.90;;;;;;4998168;28;20049;-89
2021/11/06 08:32:41;;;;;;;27.50;16.08;;;9.50;99.90;;;;;;5014408;28;20038;-89
2021/11/06 08:35:09;;;;;;;30.50;15.88;;;9.50;99.90;;;;;;4997375;28;20045;-90
2021/11/06 08:37:35;;;;;;;27.88;15.30;;;9.60;99.90;;;;;;5014855;28;20045;-89
2021/11/06 08:40:01;;;;;;;31.55;15.98;;;9.60;99.90;;;;;;4998143;28;20049;-89
2021/11/06 08:42:26;;;;;;;31.05;15.70;;;9.60;99.90;;;;;;4998456;28;20045;-89
2021/11/06 08:44:55;;;;;;;27.48;14.52;;;9.70;99.90;;;;;;4998348;28;20041;-89
2021/11/06 08:47:21;;;;;;;31.13;16.02;;;9.70;99.90;;;;;;5014138;28;20045;-89
2021/11/06 08:49:46;;;;;;;28.38;14.98;;;9.70;99.90;;;;;;4998313;28;20072;-89
2021/11/06 08:52:12;;;;;;;20.63;14.18;;;9.80;99.90;;;;;;5013972;28;20081;-89
2021/11/06 08:54:38;;;;;;;36.00;14.82;;;9.80;99.90;;;;;;5014416;28;20472;-90
2021/11/06 08:57:06;;;;;;;27.30;13.82;;;9.80;99.90;;;;;;5013952;28;20044;-90
2021/11/06 08:59:31;;;;;;;24.20;14.25;;;9.80;99.90;;;;;;5014478;28;20045;-89
2021/11/06 09:01:57;;;;;;;34.25;14.35;;;9.80;99.90;;;;;;5014388;28;20049;-89
2021/11/06 09:04:24;;;;;;;26.25;13.90;;;9.90;99.90;;;;;;5013990;28;20120;-90
2021/11/06 09:06:51;;;;;;;22.77;13.93;;;9.90;99.90;;;;;;5013965;28;20041;-89
2021/11/06 09:09:17;;;;;;;21.80;12.15;;;9.90;99.90;;;;;;5013877;28;20041;-88
2021/11/06 09:11:44;;;;;;;36.20;13.45;;;9.90;99.90;;;;;;5013989;28;20033;-89
2021/11/06 09:14:11;;;;;;;23.33;12.80;;;9.90;99.90;;;;;;4997519;28;20049;-89
2021/11/06 09:16:37;;;;;;;27.00;13.07;;;10.00;99.90;;;;;;5014241;28;20088;-91
2021/11/06 09:19:04;;;;;;;26.08;12.20;;;10.00;99.90;;;;;;5013874;28;20085;-90
2021/11/06 09:21:31;;;;;;;25.15;12.82;;;10.10;99.90;;;;;;4997604;28;20048;-89
2021/11/06 09:24:02;;;;;;;21.67;12.32;;;10.10;99.90;;;;;;5013781;28;20061;-89
2021/11/06 09:26:37;;;;;;;33.08;13.82;;;10.10;99.90;;;;;;5013066;28;20095;-89
2021/11/06 09:29:04;;;;;;;30.65;13.45;;;10.20;99.90;;;;;;5013827;28;20052;-89
2021/11/06 09:31:31;;;;;;;28.13;11.85;;;10.30;99.90;;;;;;4997265;28;20041;-89
2021/11/06 09:33:57;;;;;;;25.33;12.15;;;10.30;99.90;;;;;;5013219;28;20076;-89
2021/11/06 09:36:23;;;;;;;26.33;11.73;;;10.40;99.90;;;;;;5013294;28;20080;-89
2021/11/06 09:38:49;;;;;;;24.83;12.48;;;10.40;99.90;;;;;;4997141;28;20041;-89
2021/11/06 09:41:17;;;;;;;31.20;12.45;;;10.50;99.90;;;;;;5013337;28;20052;-90
2021/11/06 09:43:43;;;;;;;25.50;11.10;;;10.50;99.90;;;;;;5013697;28;20454;-89
2021/11/06 09:46:09;;;;;;;24.17;11.15;;;10.50;99.90;;;;;;5013071;28;20484;-89
2021/11/06 09:48:36;;;;;;;31.83;11.65;;;10.50;99.90;;;;;;5013578;28;20061;-89
2021/11/06 09:51:02;;;;;;;32.05;11.75;;;10.60;99.90;;;;;;5013686;28;20436;-89
2021/11/06 09:53:36;;;;;;;30.30;11.40;;;10.70;99.90;;;;;;5012817;28;20360;-88
2021/11/06 09:56:02;;;;;;;22.63;11.40;;;10.60;99.90;;;;;;5013662;28;20381;-89
2021/11/06 09:58:27;;;;;;;20.13;11.70;;;10.70;99.90;;;;;;5012917;28;20041;-89
2021/11/06 10:00:53;;;;;;;26.10;11.77;;;10.70;99.90;;;;;;5012271;28;20034;-89
2021/11/06 10:03:19;;;;;;;26.33;10.65;;;10.70;99.90;;;;;;5012356;28;20053;-89
2021/11/06 10:05:56;;;;;;;26.15;11.60;;;10.80;99.90;;;;;;4981095;28;20049;-88
2021/11/06 10:08:38;;;;;;;18.40;10.38;;;10.70;99.90;;;;;;4996628;28;20049;-89
2021/11/06 10:11:11;;;;;;;20.15;10.48;;;10.80;99.90;;;;;;5012888;28;20053;-89
2021/11/06 10:13:58;;;;;;;21.90;10.85;;;10.80;99.90;;;;;;5013056;28;20048;-88
2021/11/06 10:16:32;;;;;;;20.08;11.07;;;10.90;99.90;;;;;;5013059;28;20079;-89
2021/11/06 10:19:16;;;;;;;18.48;10.77;;;10.90;99.90;;;;;;5014219;28;20103;-89
2021/11/06 10:21:44;;;;;;;29.15;10.57;;;11.00;99.90;;;;;;5017001;28;20128;-90
2021/11/06 10:24:11;;;;;;;29.88;10.65;;;11.00;99.90;;;;;;5016560;28;20102;-90
2021/11/06 10:26:37;;;;;;;22.38;10.48;;;11.00;99.90;;;;;;5017448;28;20050;-89
2021/11/06 10:29:03;;;;;;;18.20;10.05;;;11.00;99.90;;;;;;5000742;28;20041;-89
2021/11/06 10:31:29;;;;;;;20.52;9.75;;;11.00;99.90;;;;;;5016356;28;20083;-89
2021/11/06 10:33:54;;;;;;;23.08;10.10;;;11.00;99.90;;;;;;5016598;28;20132;-89
2021/11/06 10:36:25;;;;;;;25.50;10.35;;;11.00;99.90;;;;;;5016092;28;20099;-90
2021/11/06 10:39:10;;;;;;;21.85;9.43;;;11.00;99.90;;;;;;5016990;28;20045;-89
2021/11/06 10:41:41;;;;;;;21.42;9.23;;;11.00;99.90;;;;;;5000594;28;20080;-89
2021/11/06 10:44:08;;;;;;;21.08;9.40;;;11.10;99.90;;;;;;5017212;28;20099;-89
2021/11/06 10:46:34;;;;;;;22.25;9.32;;;11.10;99.90;;;;;;5016290;28;20037;-89
2021/11/06 10:49:02;;;;;;;19.90;10.20;;;11.10;99.90;;;;;;4984391;28;20053;-89
2021/11/06 10:51:29;;;;;;;22.55;9.30;;;11.10;99.90;;;;;;5016278;28;20084;-90
2021/11/06 10:53:59;;;;;;;24.08;9.73;;;11.20;99.90;;;;;;5016387;28;20033;-90
2021/11/06 10:56:42;;;;;;;20.38;9.10;;;11.20;99.90;;;;;;5016394;28;20041;-89
2021/11/06 10:59:19;;;;;;;24.90;10.82;;;11.30;99.90;;;;;;5016441;28;20366;-89
2021/11/06 11:01:54;;;;;;;23.95;11.00;;;11.30;99.90;;;;;;5016572;28;20049;-89
2021/11/06 11:04:24;;;;;;;18.02;9.95;;;11.30;99.90;;;;;;5016316;28;20068;-89
2021/11/06 11:06:52;;;;;;;20.92;10.13;;;11.40;99.90;;;;;;5016233;28;20049;-89
2021/11/06 11:09:22;;;;;;;28.15;9.63;;;11.50;99.90;;;;;;4999648;28;20042;-89
2021/11/06 11:11:49;;;;;;;22.63;10.15;;;11.50;99.90;;;;;;5016431;28;20612;-89
2021/11/06 11:14:27;;;;;;;23.27;9.00;;;11.50;99.90;;;;;;5015759;28;20481;-89
2021/11/06 11:17:03;;;;;;;17.92;9.07;;;11.60;99.90;;;;;;5016576;28;20373;-90
2021/11/06 11:19:40;;;;;;;22.40;9.27;;;11.60;99.90;;;;;;5015968;28;20085;-88
2021/11/06 11:22:21;;;;;;;23.88;9.73;;;11.60;99.90;;;;;;5000017;28;20049;-89
2021/11/06 11:24:48;;;;;;;17.77;8.52;;;11.70;99.90;;;;;;4999980;28;20045;-89
2021/11/06 11:27:16;;;;;;;22.02;9.30;;;11.70;99.90;;;;;;5015196;28;20045;-89
2021/11/06 11:29:43;;;;;;;21.48;9.30;;;11.70;99.90;;;;;;5015850;28;20045;-89
2021/11/06 11:32:11;;;;;;;26.70;10.13;;;11.70;99.90;;;;;;5015240;28;20469;-89
2021/11/06 11:34:40;;;;;;;24.33;9.35;;;11.70;99.90;;;;;;5015517;28;20039;-89
2021/11/06 11:37:07;;;;;;;20.45;10.23;;;11.80;99.90;;;;;;5016174;28;20115;-89
2021/11/06 11:39:33;;;;;;;26.65;9.70;;;11.80;99.90;;;;;;5015587;28;20539;-89
2021/11/06 11:42:29;;;;;;;19.77;9.38;;;11.80;99.90;;;;;;5015619;28;20470;-89
2021/11/06 11:45:16;;;;;;;21.80;8.80;;;11.90;99.90;;;;;;4999477;28;20128;-90
2021/11/06 11:47:56;;;;;;;33.22;9.93;;;11.90;99.90;;;;;;4999158;28;20045;-89
2021/11/06 11:50:24;;;;;;;;;;;11.90;99.90;;;;;;5015411;28;20076;-89
2021/11/06 11:52:52;;;;;;;24.05;10.45;;;11.90;99.90;;;;;;5015200;28;19943;-90
2021/11/06 11:55:28;;;;;;;20.60;9.45;;;11.90;99.90;;;;;;5014868;28;20131;-89
2021/11/06 11:58:20;;;;;;;17.73;9.32;;;11.90;99.90;;;;;;5014757;28;20080;-90
2021/11/06 12:00:55;;;;;;;25.08;10.65;;;11.90;99.90;;;;;;5015543;28;20047;-90
2021/11/06 12:03:34;;;;;;;19.88;9.50;;;11.90;99.90;;;;;;5015003;28;20538;-89
2021/11/06 12:06:18;;;;;;;23.48;10.27;;;11.90;99.90;;;;;;5015166;28;20052;-89
2021/11/06 12:08:44;;;;;;;26.05;9.68;;;11.80;99.90;;;;;;5015439;28;20047;-89
2021/11/06 12:11:16;;;;;;;20.40;9.30;;;11.80;99.90;;;;;;5015340;28;20041;-89
2021/11/06 12:13:47;;;;;;;27.33;10.57;;;11.70;99.90;;;;;;5014690;28;20041;-89
2021/11/06 12:16:14;;;;;;;27.92;10.15;;;11.70;99.90;;;;;;5014945;28;20055;-89
2021/11/06 12:18:56;;;;;;;24.40;9.80;;;11.70;99.90;;;;;;5014656;28;20063;-89
2021/11/06 12:21:25;;;;;;;20.25;9.65;;;11.60;99.90;;;;;;5014677;28;20046;-88
2021/11/06 12:23:58;;;;;;;29.08;10.13;;;11.60;99.90;;;;;;5014999;28;20642;-89
2021/11/06 12:26:30;;;;;;;25.45;9.40;;;11.60;99.90;;;;;;5014265;28;20088;-89
2021/11/06 12:29:05;;;;;;;24.98;10.50;;;11.60;99.90;;;;;;5032606;28;20080;-89
2021/11/06 12:31:43;;;;;;;27.23;9.98;;;11.60;99.90;;;;;;5014404;28;20046;-89
2021/11/06 12:34:28;;;;;;;25.75;10.05;;;11.60;99.90;;;;;;5015056;28;20052;-89
2021/11/06 12:36:54;;;;;;;21.42;9.35;;;11.60;99.90;;;;;;5032469;28;20041;-89
2021/11/06 12:39:43;;;;;;;25.50;9.23;;;11.60;99.90;;;;;;5014443;28;20053;-89
2021/11/06 12:42:18;;;;;;;22.40;9.82;;;11.60;99.90;;;;;;5014258;28;20048;-89